Accueil
METAR-TAF:

METAR-TAF

Aéroports :

Chisholm-Hibbing Airport

Hibbing, Minnesota, États-Unis

latitude: 47-23-12N, longitude: 092-50-20W, altitude: 412 m

Observation

Le bulletin a été fait il y a 18 minutes, à 12:53 UTC
Vent calme
Température -13°C
Humidité 85%
Pression 1023 hPa
Visibilité: 16.1 km
Nuages fragmentés à une hauteur de 1800 ft

METAR: KHIB 301253Z AUTO 00000KT 10SM BKN018 M13/M15 A3022 RMK AO2 SLP267 T11331150

Heure: 07:11 (13:11 UTC)

Prévision

Le bulletin a été fait il y a 1 heure et 48 minutes, à 11:23 UTC
Prévision valable du 30 à 12 UTC au 01 à 12 UTC
Vent 4 kt de direction variable
Visibilité: 10 km
Nuages fragmentés à une hauteur de 1800 ft
neige faible
A partir de 30 à 1800 UTC
Vent kt de nord
Visibilité: 10 km
Ciel clair

TAF: KHIB 301123Z 3012/0112 VRB04KT P6SM -SN BKN018 FM301800 00000KT P6SM SKC

Observations et prévisions météorologiques de plus de 4000 aéroports (messages METAR et TAF).

Les stations disponibles sont représentées par des disques jaunes et rouges sur la carte.

Passer la souris dessus pour voir le nom de la station.

Cliquer dessus pour voir les observations et prévisions météorologiques.

Pour changer de carte: cliquez sur les boutons verts avec une croix noire pour zoomer, sur le bouton vert avec un tiret pour effectuer un zoom arrière, ou sur les flèches vertes pour les cartes adjacentes.


METAR-TAF: